Time;durP1;ratioP1;P1;durP2;ratioP2;P2;SDS_P1;SDS_P2;PMS_P1;PMS_P2;Temp;Humidity;BMP_temperature;BMP_pressure;BME280_temperature;BME280_humidity;BME280_pressure;Samples;Min_cycle;Max_cycle;Signal;HPM_P1;HPM_P2
2022/06/22 00:01:18;;;;;;;11.40;9.40;;;;;;;10.00;75.84;97550.68;106803;1284;22698;-92
2022/06/22 00:03:56;;;;;;;14.00;7.30;;;;;;;9.89;75.61;97549.25;105957;1284;22545;-91
2022/06/22 00:06:55;;;;;;;10.90;9.20;;;;;;;9.80;75.54;97555.62;106114;1284;24534;-90
2022/06/22 00:09:31;;;;;;;21.50;19.50;;;;;;;9.76;75.89;97559.33;105899;1285;22696;-90
2022/06/22 00:12:01;;;;;;;11.10;9.80;;;;;;;9.70;75.66;97556.53;105886;1284;24384;-89
2022/06/22 00:14:35;;;;;;;9.80;8.60;;;;;;;9.67;76.35;97558.38;107160;1283;22563;-90
2022/06/22 00:17:36;;;;;;;10.70;9.50;;;;;;;9.66;76.47;97559.60;107857;1277;24204;31
2022/06/22 00:23:11;;;;;;;9.20;7.70;;;;;;;9.72;76.22;97554.02;109108;1272;22483;-93
2022/06/22 00:25:46;;;;;;;20.10;18.00;;;;;;;9.70;76.58;97547.29;105650;1272;22924;31
2022/06/22 00:28:26;;;;;;;;;;;;;;;9.62;76.42;97543.15;105664;1274;22764;-87
2022/06/22 00:31:03;;;;;;;14.00;8.00;;;;;;;9.55;76.72;97545.02;108661;1284;22547;-89
2022/06/22 00:33:31;;;;;;;10.00;7.00;;;;;;;9.44;77.89;97556.86;108386;1285;22715;-90
2022/06/22 00:36:42;;;;;;;8.30;6.90;;;;;;;9.33;78.64;97566.20;108896;1272;22515;-91
2022/06/22 00:39:15;;;;;;;8.20;6.80;;;;;;;9.25;78.39;97576.03;107117;1287;22823;-91
2022/06/22 00:44:48;;;;;;;7.80;6.60;;;;;;;9.17;78.41;97582.70;107426;1285;23327;-89
2022/06/22 00:47:38;;;;;;;9.30;6.80;;;;;;;9.17;78.23;97584.37;107629;1287;24207;-92
2022/06/22 00:50:15;;;;;;;12.30;6.90;;;;;;;9.14;78.01;97593.18;107294;1287;22648;-94
2022/06/22 00:52:49;;;;;;;8.70;7.60;;;;;;;9.06;78.40;97601.27;107824;1287;22575;-92
2022/06/22 00:55:25;;;;;;;9.70;7.90;;;;;;;9.05;79.01;97600.22;109001;1272;24284;-89
2022/06/22 00:58:25;;;;;;;12.30;9.20;;;;;;;9.05;78.75;97602.27;107894;1274;22561;-90
2022/06/22 01:01:06;;;;;;;8.70;7.70;;;;;;;9.03;78.63;97606.55;107703;1284;22612;-91
2022/06/22 01:04:00;;;;;;;9.10;6.90;;;;;;;9.05;78.53;97607.69;107221;1284;23245;-94
2022/06/22 01:06:50;;;;;;;8.70;7.80;;;;;;;9.05;78.66;97610.64;107117;1284;22557;-90
2022/06/22 01:09:24;;;;;;;10.00;8.00;;;;;;;9.01;78.74;97616.14;106900;1284;25349;-93
2022/06/22 01:12:18;;;;;;;14.60;13.30;;;;;;;8.97;78.80;97613.85;107350;1284;22571;-94
2022/06/22 01:20:58;;;;;;;12.20;7.90;;;;;;;8.63;80.46;97610.10;108100;1283;23929;-90
2022/06/22 01:23:38;;;;;;;9.20;7.50;;;;;;;8.57;80.37;97612.45;107499;1284;22787;-93
2022/06/22 01:26:33;;;;;;;10.40;8.10;;;;;;;8.53;80.27;97611.13;106721;1284;22543;-92
2022/06/22 01:29:11;;;;;;;10.80;9.50;;;;;;;8.48;80.42;97615.06;106365;1284;24374;-92
2022/06/22 01:31:50;;;;;;;10.80;8.60;;;;;;;8.48;80.46;97613.73;106477;1284;22576;-88
2022/06/22 01:34:19;;;;;;;10.60;8.70;;;;;;;8.53;80.69;97615.73;106736;1284;22828;-92
2022/06/22 01:36:47;;;;;;;14.90;10.40;;;;;;;8.53;80.49;97612.19;106659;1283;24335;-94
2022/06/22 01:39:15;;;;;;;12.10;10.00;;;;;;;8.52;80.83;97613.38;106299;1284;22514;-91
2022/06/22 01:41:59;;;;;;;9.80;8.20;;;;;;;8.56;80.49;97615.85;106959;1283;22593;-91
2022/06/22 01:47:25;;;;;;;11.90;10.50;;;;;;;8.45;80.94;97600.54;107729;1287;22646;-91
2022/06/22 01:50:08;;;;;;;13.70;10.10;;;;;;;8.58;81.65;97606.30;107623;1287;22493;-93
2022/06/22 01:52:51;;;;;;;12.40;9.70;;;;;;;8.68;81.41;97606.05;107224;1287;22844;-94
2022/06/22 01:55:44;;;;;;;12.50;9.30;;;;;;;8.65;80.91;97602.64;106378;1287;298291;-93
2022/06/22 02:01:36;;;;;;;12.90;10.60;;;;;;;8.72;81.63;97605.07;107392;1282;24707;-93
2022/06/22 02:04:04;;;;;;;15.10;10.40;;;;;;;8.85;81.70;97607.34;107060;1282;24200;-90
2022/06/22 02:09:35;;;;;;;13.30;11.60;;;;;;;8.97;81.62;97613.33;107138;1282;22488;-91
2022/06/22 02:12:20;;;;;;;15.60;11.40;;;;;;;9.00;81.68;97613.67;107394;1284;22563;-93
2022/06/22 02:14:56;;;;;;;13.20;11.90;;;;;;;8.97;82.08;97608.31;107873;1282;22575;-85
2022/06/22 02:17:28;;;;;;;13.80;12.00;;;;;;;8.98;82.23;97599.48;108308;1282;22618;-89
2022/06/22 02:20:24;;;;;;;13.10;11.60;;;;;;;9.02;82.16;97601.11;107518;1282;25274;-92
2022/06/22 02:22:55;;;;;;;12.20;10.10;;;;;;;9.06;82.04;97601.60;107311;1282;22548;-91
2022/06/22 02:25:31;;;;;;;11.10;9.80;;;;;;;9.00;82.01;97612.67;107356;1282;22639;-91
2022/06/22 02:28:00;;;;;;;15.30;10.80;;;;;;;8.94;82.42;97614.55;107403;1282;22495;-90
2022/06/22 02:30:29;;;;;;;13.80;11.20;;;;;;;8.92;82.66;97617.86;107613;1284;23075;-91
2022/06/22 02:32:56;;;;;;;13.80;11.20;;;;;;;8.90;82.56;97617.83;107833;1282;22900;-92
2022/06/22 02:35:24;;;;;;;14.40;10.10;;;;;;;8.91;82.22;97624.70;107692;1282;22679;-93
2022/06/22 02:38:00;;;;;;;16.20;14.60;;;;;;;8.93;82.27;97624.17;107782;1282;22570;-93
2022/06/22 02:44:29;;;;;;;12.90;11.50;;;;;;;8.92;81.94;97634.09;107453;1282;22655;-92
2022/06/22 02:46:16;;;;;;;16.90;11.70;;;;;;;8.92;82.70;97647.95;106277;1282;22782;-91
2022/06/22 02:48:52;;;;;;;14.70;12.40;;;;;;;8.93;83.07;97648.84;106709;1282;22573;-92
2022/06/22 02:51:26;;;;;;;13.30;11.90;;;;;;;8.99;82.82;97648.80;106310;1282;22492;-93
2022/06/22 02:53:58;;;;;;;19.40;14.40;;;;;;;9.03;82.68;97647.23;106388;1284;22565;-90
2022/06/22 02:56:33;;;;;;;13.80;12.30;;;;;;;9.01;82.62;97648.66;106518;1282;25367;-92
2022/06/22 02:59:01;;;;;;;13.10;11.70;;;;;;;9.00;82.77;97653.25;107815;1282;22564;-92
2022/06/22 03:01:32;;;;;;;12.60;11.20;;;;;;;9.02;82.78;97654.23;108077;1282;22577;-89
2022/06/22 03:04:07;;;;;;;18.40;16.60;;;;;;;9.01;82.66;97655.50;108460;1282;22546;-92
2022/06/22 03:06:42;;;;;;;16.10;13.20;;;;;;;9.00;82.69;97658.62;107622;1282;22712;-91
2022/06/22 03:09:10;;;;;;;17.20;15.40;;;;;;;9.02;83.11;97660.78;107890;1282;23885;-91
2022/06/22 03:11:43;;;;;;;15.30;13.10;;;;;;;9.04;83.91;97667.80;108268;1282;22656;-92
2022/06/22 03:17:16;;;;;;;17.00;12.40;;;;;;;9.02;83.50;97667.92;108336;1287;22639;-90
2022/06/22 03:19:44;;;;;;;15.10;12.80;;;;;;;9.11;83.91;97666.45;108167;1287;22867;-90
2022/06/22 03:22:21;;;;;;;14.10;12.70;;;;;;;9.17;83.73;97660.33;107640;1287;22499;-91
2022/06/22 03:27:45;;;;;;;16.90;15.30;;;;;;;9.02;83.78;97657.39;106701;1287;22661;-92
2022/06/22 03:30:17;;;;;;;16.10;14.50;;;;;;;9.04;83.79;97654.05;106736;1287;22633;-91
2022/06/22 03:32:52;;;;;;;14.20;12.60;;;;;;;9.03;83.67;97649.27;107975;1287;22275;-86
2022/06/22 03:38:37;;;;;;;15.50;13.70;;;;;;;9.17;84.39;97632.80;108688;1275;23000;-85
2022/06/22 03:41:12;;;;;;;16.70;13.10;;;;;;;9.30;84.33;97629.45;108897;1282;22733;-88
2022/06/22 03:44:04;;;;;;;17.00;14.10;;;;;;;9.41;84.59;97626.17;109026;1271;23314;-91
2022/06/22 03:46:51;;;;;;;18.20;13.40;;;;;;;9.55;84.52;97630.65;109058;1272;22696;31
2022/06/22 03:49:36;;;;;;;16.70;14.00;;;;;;;9.69;84.55;97628.55;109088;1274;22624;31
2022/06/22 03:52:14;;;;;;;16.10;13.40;;;;;;;9.85;84.38;97621.23;109192;1271;23166;31
2022/06/22 03:57:49;;;;;;;15.90;13.70;;;;;;;10.17;84.56;97616.69;103052;1271;22761;31
2022/06/22 04:00:24;;;;;;;24.30;21.80;;;;;;;10.30;84.67;97615.04;109111;1271;24084;31
2022/06/22 04:02:52;;;;;;;21.20;19.20;;;;;;;10.38;84.54;97610.55;109041;1283;22210;-82
2022/06/22 04:08:45;;;;;;;16.80;14.70;;;;;;;10.63;84.69;97625.98;109127;1271;23018;31
2022/06/22 04:11:32;;;;;;;17.80;15.10;;;;;;;10.73;84.35;97631.09;108237;1274;23028;-91
2022/06/22 04:14:22;;;;;;;16.40;14.70;;;;;;;10.82;84.42;97641.70;106452;1285;22568;-91
2022/06/22 04:16:59;;;;;;;24.00;20.10;;;;;;;10.85;84.76;97656.61;106809;1284;22679;-92
2022/06/22 04:19:45;;;;;;;20.90;16.70;;;;;;;10.84;85.18;97652.59;106881;1284;23854;-93
2022/06/22 04:22:21;;;;;;;18.90;16.90;;;;;;;10.93;85.09;97647.24;107041;1284;23960;-92
2022/06/22 04:25:04;;;;;;;21.70;19.20;;;;;;;11.03;85.07;97649.92;108141;1274;23507;31
2022/06/22 04:27:43;;;;;;;20.90;18.90;;;;;;;11.15;84.94;97653.25;109124;1274;22303;31
2022/06/22 04:30:24;;;;;;;19.00;16.90;;;;;;;11.23;85.14;97652.89;102041;1275;22630;-84
2022/06/22 04:33:14;;;;;;;18.20;15.90;;;;;;;11.24;85.23;97654.52;106917;1272;22505;31
2022/06/22 04:38:45;;;;;;;19.20;15.30;;;;;;;11.31;85.27;97673.43;109174;1273;23120;31
2022/06/22 04:41:30;;;;;;;18.30;14.60;;;;;;;11.44;85.24;97674.67;108993;1275;22562;-85
2022/06/22 04:44:12;;;;;;;18.60;15.10;;;;;;;11.54;85.52;97673.46;109123;1272;24067;31
2022/06/22 04:46:51;;;;;;;22.10;16.10;;;;;;;11.58;85.56;97670.37;109133;1272;22465;31
2022/06/22 04:49:29;;;;;;;19.50;14.20;;;;;;;11.61;85.75;97672.39;109128;1273;23669;31
2022/06/22 04:55:05;;;;;;;17.10;14.50;;;;;;;11.72;85.32;97674.42;108155;1274;22654;31
2022/06/22 04:57:42;;;;;;;15.00;13.00;;;;;;;11.85;85.66;97669.55;108859;1277;22410;31
2022/06/22 05:00:34;;;;;;;16.00;13.30;;;;;;;11.96;85.36;97667.75;109011;1275;22876;31
2022/06/22 05:03:19;;;;;;;16.70;14.30;;;;;;;12.07;85.42;97671.54;108936;1275;22462;31
2022/06/22 05:15:37;;;;;;;19.60;12.50;;;;;;;12.66;85.46;97692.02;109186;1272;22496;31
2022/06/22 05:21:43;;;;;;;13.50;11.80;;;;;;;12.74;84.87;97690.87;107856;1272;22783;-90
2022/06/22 05:24:24;;;;;;;18.80;12.40;;;;;;;12.80;84.93;97698.57;105997;1284;23138;-89
2022/06/22 05:26:56;;;;;;;17.10;13.90;;;;;;;12.93;84.95;97706.33;105841;1284;24086;-90
2022/06/22 05:29:36;;;;;;;19.20;14.20;;;;;;;13.05;84.69;97711.42;105915;1284;24273;-92
2022/06/22 05:32:10;;;;;;;18.60;14.30;;;;;;;13.16;84.32;97713.06;106343;1284;22527;-91
2022/06/22 05:34:44;;;;;;;18.60;14.40;;;;;;;13.19;84.32;97712.96;106595;1284;22671;-89
2022/06/22 05:37:23;;;;;;;19.20;12.60;;;;;;;13.22;84.23;97711.38;106411;1284;24227;-90
2022/06/22 05:39:54;;;;;;;18.80;14.00;;;;;;;13.30;84.40;97711.23;105989;1284;24375;-92
2022/06/22 05:42:24;;;;;;;19.60;14.00;;;;;;;13.41;84.34;97712.23;105672;1284;22570;-91
2022/06/22 05:44:53;;;;;;;19.40;12.60;;;;;;;13.48;84.15;97718.09;105602;1284;22584;-90
2022/06/22 05:47:29;;;;;;;18.30;13.30;;;;;;;13.48;83.70;97721.97;105579;1284;22576;-91
2022/06/22 05:50:14;;;;;;;18.30;12.90;;;;;;;13.50;83.76;97717.52;105598;1284;24218;-91
2022/06/22 05:52:47;;;;;;;17.80;12.00;;;;;;;13.54;83.99;97712.49;105578;1284;24215;-92
2022/06/22 05:55:42;;;;;;;19.30;10.30;;;;;;;13.63;83.20;97711.33;105701;1284;24295;-89
2022/06/22 05:58:18;;;;;;;17.40;11.50;;;;;;;13.77;83.06;97710.16;105656;1284;22587;-92
2022/06/22 06:00:49;;;;;;;17.90;11.10;;;;;;;13.95;83.24;97706.65;105796;1284;22541;-92
2022/06/22 06:03:23;;;;;;;22.40;11.00;;;;;;;14.17;83.50;97701.75;105925;1284;22625;-91
2022/06/22 06:06:17;;;;;;;21.70;10.90;;;;;;;14.36;83.30;97697.69;105782;1284;22632;-89
2022/06/22 06:08:51;;;;;;;19.80;11.50;;;;;;;14.58;83.22;97692.95;105424;1284;22561;-91
2022/06/22 06:11:24;;;;;;;15.60;10.60;;;;;;;14.72;83.14;97690.94;106087;1284;22497;-92
2022/06/22 06:14:07;;;;;;;16.00;10.70;;;;;;;14.88;82.94;97690.27;107100;1284;22568;-89
2022/06/22 06:16:45;;;;;;;17.50;8.90;;;;;;;15.04;82.61;97694.98;107038;1284;22579;-93
2022/06/22 06:19:23;;;;;;;17.00;10.60;;;;;;;15.19;82.27;97694.89;106543;1284;22558;-92
2022/06/22 06:21:58;;;;;;;16.80;10.50;;;;;;;15.31;82.18;97692.98;106473;1284;22653;-91
2022/06/22 06:24:33;;;;;;;14.20;10.30;;;;;;;15.42;81.98;97696.86;105795;1284;25710;-90
2022/06/22 06:30:20;;;;;;;12.30;8.10;;;;;;;15.70;81.02;97687.64;106325;1283;25213;-91
2022/06/22 06:32:55;;;;;;;11.50;8.00;;;;;;;15.84;80.74;97687.90;107156;1283;25242;-92
2022/06/22 06:35:49;;;;;;;14.30;9.60;;;;;;;15.90;79.59;97688.80;106782;1284;22583;-93
2022/06/22 06:38:42;;;;;;;14.10;9.20;;;;;;;16.04;80.20;97683.56;107341;1284;22544;-91
2022/06/22 06:41:27;;;;;;;17.10;8.90;;;;;;;16.20;79.48;97680.27;107001;1284;26637;-92
2022/06/22 06:44:20;;;;;;;20.40;8.80;;;;;;;16.36;78.66;97681.37;106648;1282;23859;-92
2022/06/22 06:46:53;;;;;;;17.80;8.40;;;;;;;16.46;77.76;97685.19;106615;1284;22563;-92
2022/06/22 06:53:47;;;;;;;14.00;7.70;;;;;;;16.60;74.35;97688.56;108248;1282;25529;-89
2022/06/22 06:56:40;;;;;;;14.40;7.90;;;;;;;16.69;74.77;97687.73;107700;1282;22591;-92
2022/06/22 06:59:15;;;;;;;14.90;8.70;;;;;;;16.80;73.93;97687.01;108205;1283;24423;-93
2022/06/22 07:01:52;;;;;;;14.10;6.20;;;;;;;16.88;73.23;97688.33;107958;1283;22550;-91
2022/06/22 07:04:30;;;;;;;15.10;5.20;;;;;;;16.87;69.05;97684.08;107616;1282;22554;-91
2022/06/22 07:07:07;;;;;;;11.80;5.10;;;;;;;16.84;68.55;97677.16;106442;1282;22535;-91
2022/06/22 07:09:38;;;;;;;10.10;4.60;;;;;;;16.88;69.47;97682.41;107342;1282;22582;-90
2022/06/22 07:12:18;;;;;;;10.20;4.30;;;;;;;16.98;68.91;97683.55;107942;1282;22637;-89
2022/06/22 07:14:46;;;;;;;6.30;3.80;;;;;;;17.11;69.65;97678.21;107285;1282;22633;-92
2022/06/22 07:17:17;;;;;;;9.10;5.00;;;;;;;17.25;67.41;97679.00;107709;1282;22596;-89
2022/06/22 07:19:50;;;;;;;10.90;4.50;;;;;;;17.36;67.03;97680.70;107592;1283;22510;-94
2022/06/22 07:22:22;;;;;;;12.00;5.50;;;;;;;17.42;67.08;97674.71;107791;1282;22577;-92
2022/06/22 07:24:53;;;;;;;10.00;5.60;;;;;;;17.40;65.58;97667.17;107097;1282;22569;-94
2022/06/22 07:27:28;;;;;;;8.60;4.80;;;;;;;17.57;66.84;97674.64;107136;1283;26509;-94
2022/06/22 07:30:07;;;;;;;8.70;4.60;;;;;;;17.71;68.09;97665.58;107317;1282;23060;-93
2022/06/22 07:32:40;;;;;;;8.00;3.60;;;;;;;17.91;67.03;97664.30;106837;1283;22892;-91
2022/06/22 07:35:21;;;;;;;6.80;3.80;;;;;;;18.02;65.39;97668.94;107613;1283;22700;-92
2022/06/22 07:38:02;;;;;;;4.80;3.20;;;;;;;18.10;62.09;97669.28;108351;1282;22594;-88
2022/06/22 07:40:33;;;;;;;7.80;3.20;;;;;;;18.12;60.05;97668.23;108747;1282;22563;-90
2022/06/22 07:43:01;;;;;;;5.30;3.60;;;;;;;18.15;60.13;97667.77;108888;1282;22577;-91
2022/06/22 07:45:36;;;;;;;8.10;3.70;;;;;;;18.18;61.03;97673.18;108308;1272;23019;31
2022/06/22 07:48:19;;;;;;;9.70;4.10;;;;;;;18.25;59.91;97669.08;106845;1272;22580;-88
2022/06/22 07:50:56;;;;;;;11.40;4.00;;;;;;;18.31;60.00;97674.91;106890;1284;22488;-93
2022/06/22 07:53:47;;;;;;;7.20;3.60;;;;;;;18.40;56.57;97679.21;106859;1284;22552;-93
2022/06/22 07:56:17;;;;;;;7.40;3.70;;;;;;;18.48;55.31;97682.05;105772;1284;22550;-88
2022/06/22 07:59:03;;;;;;;8.00;3.80;;;;;;;18.48;54.99;97686.11;106157;1284;22590;-90
2022/06/22 08:01:37;;;;;;;9.10;3.70;;;;;;;18.53;52.84;97689.42;106981;1284;22918;-90
2022/06/22 08:04:23;;;;;;;9.10;4.10;;;;;;;18.50;53.03;97688.34;106914;1284;22766;-89
2022/06/22 08:07:08;;;;;;;6.50;3.50;;;;;;;18.63;55.46;97686.13;105898;1284;23871;-87
2022/06/22 08:09:52;;;;;;;10.00;3.70;;;;;;;18.73;51.77;97682.72;106583;1284;22610;-93
2022/06/22 08:12:28;;;;;;;6.70;3.70;;;;;;;18.75;51.34;97675.64;105911;1284;25497;-92
2022/06/22 08:14:57;;;;;;;7.00;4.00;;;;;;;18.94;54.75;97679.95;105530;1284;22634;-91
2022/06/22 08:17:31;;;;;;;8.30;3.70;;;;;;;19.05;52.72;97684.94;107115;1284;22522;-92
2022/06/22 08:19:59;;;;;;;6.60;3.80;;;;;;;19.05;50.07;97681.50;106163;1284;23085;-92
2022/06/22 08:22:26;;;;;;;6.60;3.20;;;;;;;19.06;48.93;97676.14;105565;1284;25421;-89
2022/06/22 08:24:58;;;;;;;6.80;2.90;;;;;;;19.06;49.76;97678.48;105576;1284;25260;-90
2022/06/22 08:27:28;;;;;;;6.50;3.30;;;;;;;19.09;48.01;97679.30;106316;1283;25514;-86
2022/06/22 08:29:57;;;;;;;9.30;4.90;;;;;;;19.16;49.98;97682.02;106141;1284;22744;-87
2022/06/22 08:32:33;;;;;;;6.70;3.50;;;;;;;19.34;51.20;97681.52;106227;1283;22633;-88
2022/06/22 08:35:12;;;;;;;7.20;3.70;;;;;;;19.43;48.81;97680.45;105584;1284;22812;-88
2022/06/22 08:38:04;;;;;;;7.30;3.10;;;;;;;19.48;46.96;97684.28;105515;1284;22571;-90
2022/06/22 08:41:37;;;;;;;5.40;2.80;;;;;;;19.49;45.97;97674.30;106225;1284;22633;-87
2022/06/22 08:44:28;;;;;;;7.10;3.00;;;;;;;19.61;45.84;97677.94;104842;1290;25436;-88
2022/06/22 08:47:01;;;;;;;6.70;3.20;;;;;;;19.63;45.81;97669.31;105518;1289;22572;-87
2022/06/22 08:49:32;;;;;;;5.60;3.10;;;;;;;19.79;45.27;97667.73;107391;1289;22602;-87
2022/06/22 08:52:45;;;;;;;5.80;2.90;;;;;;;19.90;43.68;97663.40;104871;1289;22576;-88
2022/06/22 08:55:53;;;;;;;5.10;2.50;;;;;;;20.00;42.46;97668.17;104053;1297;22590;-85
2022/06/22 08:58:30;;;;;;;5.90;3.20;;;;;;;19.99;41.60;97667.59;104199;1297;22745;-87
2022/06/22 09:01:01;;;;;;;5.70;2.40;;;;;;;19.94;40.54;97676.17;104063;1297;22881;-88
2022/06/22 09:04:28;;;;;;;4.60;2.40;;;;;;;19.88;40.66;97674.38;104336;1299;22582;-88
2022/06/22 09:07:08;;;;;;;5.90;2.70;;;;;;;19.97;40.92;97667.56;103275;1309;24520;-89
2022/06/22 09:10:04;;;;;;;6.60;2.30;;;;;;;20.12;42.07;97668.42;103280;1309;22666;-89
2022/06/22 09:12:52;;;;;;;7.00;2.50;;;;;;;20.37;42.43;97663.56;103392;1309;22784;-88
2022/06/22 09:15:59;;;;;;;6.40;2.50;;;;;;;20.48;40.71;97666.54;103287;1309;23127;-89
2022/06/22 09:18:36;;;;;;;4.70;2.30;;;;;;;20.49;41.33;97668.90;103112;1309;22604;-89
2022/06/22 09:21:22;;;;;;;5.60;2.40;;;;;;;20.60;40.30;97672.99;103321;1306;22614;-89
2022/06/22 09:24:22;;;;;;;6.20;2.30;;;;;;;20.61;40.65;97664.10;103386;1306;22947;-88
2022/06/22 09:27:16;;;;;;;5.70;2.70;;;;;;;20.74;40.84;97669.26;103386;1306;22610;-89
2022/06/22 09:30:03;;;;;;;5.90;2.40;;;;;;;20.82;40.96;97666.73;103510;1306;22691;-87
2022/06/22 09:32:39;;;;;;;4.40;2.50;;;;;;;20.98;41.84;97669.17;103689;1297;22634;-88
2022/06/22 09:35:46;;;;;;;7.10;2.70;;;;;;;21.10;41.34;97675.59;103933;1297;24574;-87
2022/06/22 09:38:39;;;;;;;6.00;2.60;;;;;;;20.90;41.62;97671.67;103897;1296;22573;-89
2022/06/22 09:41:30;;;;;;;8.20;2.40;;;;;;;20.99;41.59;97671.54;103975;1297;22646;-89
2022/06/22 09:44:36;;;;;;;5.70;2.50;;;;;;;21.04;40.80;97663.23;104924;1285;24256;-88
2022/06/22 09:47:16;;;;;;;7.60;3.00;;;;;;;21.19;40.60;97659.48;105431;1283;23232;-89
2022/06/22 09:50:05;;;;;;;8.50;2.70;;;;;;;21.30;40.67;97660.16;105506;1283;22571;-87
2022/06/22 09:52:55;;;;;;;7.70;3.00;;;;;;;21.43;40.96;97652.88;105780;1282;22605;-87
2022/06/22 09:58:55;;;;;;;7.00;2.50;;;;;;;21.81;40.90;97650.17;105488;1283;22557;-89
2022/06/22 10:01:38;;;;;;;6.40;2.40;;;;;;;21.74;39.67;97641.57;105540;1282;23293;-89
2022/06/22 10:04:45;;;;;;;5.70;2.60;;;;;;;21.73;39.86;97658.64;105454;1282;22689;-87
2022/06/22 10:07:16;;;;;;;6.60;2.50;;;;;;;21.78;40.13;97645.53;105469;1282;22543;-87
2022/06/22 10:09:52;;;;;;;7.40;2.40;;;;;;;21.85;39.42;97646.52;105281;1284;25294;-87
2022/06/22 10:12:56;;;;;;;6.20;2.50;;;;;;;21.72;39.16;97656.52;105465;1282;22560;-89
2022/06/22 10:15:43;;;;;;;8.90;2.90;;;;;;;21.71;39.82;97646.02;105388;1284;22640;-87
2022/06/22 10:18:30;;;;;;;4.00;2.50;;;;;;;21.76;39.27;97648.09;105451;1282;24288;-89
2022/06/22 10:21:26;;;;;;;5.50;2.80;;;;;;;21.89;39.99;97642.56;105296;1283;22677;-89
2022/06/22 10:24:06;;;;;;;7.00;3.10;;;;;;;22.14;40.78;97632.96;105434;1282;22566;-88
2022/06/22 10:27:06;;;;;;;6.90;2.80;;;;;;;22.31;39.42;97635.29;105452;1282;24264;-86
2022/06/22 10:29:50;;;;;;;5.50;2.50;;;;;;;22.19;39.51;97632.14;105474;1282;22553;-88
2022/06/22 10:32:38;;;;;;;5.00;2.80;;;;;;;22.34;39.39;97641.66;105480;1282;23226;-88
2022/06/22 10:35:25;;;;;;;4.80;2.70;;;;;;;22.55;39.20;97636.83;105328;1284;22725;-86
2022/06/22 10:38:31;;;;;;;6.00;3.10;;;;;;;22.45;38.87;97637.80;105266;1282;22572;-89
2022/06/22 10:47:18;;;;;;;6.40;2.50;;;;;;;21.74;37.32;97643.54;104718;1290;24445;-88
2022/06/22 10:50:04;;;;;;;7.40;2.30;;;;;;;21.89;37.75;97631.11;104727;1290;23967;-88
2022/06/22 10:52:58;;;;;;;9.70;3.00;;;;;;;22.19;37.96;97633.94;104723;1290;22580;-89
2022/06/22 10:55:42;;;;;;;6.30;2.50;;;;;;;22.44;38.00;97635.67;104974;1290;24224;-89
2022/06/22 10:58:15;;;;;;;10.10;2.60;;;;;;;22.55;37.29;97635.98;104771;1290;24228;-89
2022/06/22 11:01:21;;;;;;;7.70;2.60;;;;;;;22.41;37.92;97636.60;104692;1290;24256;-84
2022/06/22 11:04:17;;;;;;;5.30;2.40;;;;;;;22.31;38.48;97632.54;104718;1290;22582;-88
2022/06/22 11:07:22;;;;;;;6.30;2.40;;;;;;;22.41;38.63;97635.35;105652;1290;25343;-89
2022/06/22 11:10:15;;;;;;;5.90;2.30;;;;;;;22.67;38.00;97633.13;106818;1290;22574;-88
2022/06/22 11:13:01;;;;;;;6.40;2.50;;;;;;;22.84;37.69;97635.48;105324;1282;22664;-88
2022/06/22 11:16:03;;;;;;;8.50;2.90;;;;;;;22.71;36.87;97638.89;105566;1282;24350;-88
2022/06/22 11:18:36;;;;;;;8.00;2.60;;;;;;;22.67;37.19;97632.73;105774;1282;25419;-88
2022/06/22 11:21:35;;;;;;;5.40;2.90;;;;;;;22.80;37.27;97631.38;105408;1282;24296;-88
2022/06/22 11:24:21;;;;;;;7.00;2.60;;;;;;;22.88;36.26;97630.09;105456;1283;22887;-88
2022/06/22 11:33:31;;;;;;;10.10;3.20;;;;;;;22.26;36.78;97625.77;105388;1282;22559;-87
2022/06/22 11:37:01;;;;;;;6.80;2.90;;;;;;;22.46;37.49;97620.02;105363;1282;22906;-88
2022/06/22 11:40:39;;;;;;;7.10;2.50;;;;;;;23.12;36.83;97631.05;105431;1282;22654;-88
2022/06/22 11:43:35;;;;;;;6.50;2.20;;;;;;;23.45;36.87;97626.58;105372;1282;23012;-87
2022/06/22 11:46:24;;;;;;;7.20;2.90;;;;;;;23.52;36.25;97630.67;105406;1282;22567;-87
2022/06/22 11:48:56;;;;;;;6.50;2.30;;;;;;;23.50;36.73;97630.35;105339;1284;22804;-86
2022/06/22 11:51:54;;;;;;;5.10;2.60;;;;;;;23.67;37.17;97636.83;105322;1282;23018;-88
2022/06/22 11:54:38;;;;;;;5.90;2.10;;;;;;;23.83;34.66;97639.84;105375;1282;22569;-87
2022/06/22 11:57:27;;;;;;;5.50;2.50;;;;;;;23.80;35.72;97632.92;105381;1282;23019;-88
2022/06/22 12:00:22;;;;;;;5.10;2.10;;;;;;;24.03;35.83;97632.52;105343;1282;22598;-86
2022/06/22 12:03:00;;;;;;;;;;;;;;;23.67;35.16;97640.05;105412;1282;25280;-88
2022/06/22 12:05:36;;;;;;;6.60;2.50;;;;;;;23.23;35.49;97648.92;105324;1282;25503;-87
2022/06/22 12:08:13;;;;;;;5.70;2.20;;;;;;;23.36;35.91;97640.23;105362;1283;25705;-87
2022/06/22 12:10:44;;;;;;;5.00;2.30;;;;;;;23.69;35.04;97643.02;105346;1282;25264;-87
2022/06/22 12:15:04;;;;;;;5.20;2.60;;;;;;;24.08;35.17;97638.02;105370;1282;22557;-87
2022/06/22 12:17:10;;;;;;;4.50;2.40;;;;;;;24.52;34.00;97640.18;105462;1282;22598;-87
2022/06/22 12:20:02;;;;;;;4.70;2.30;;;;;;;24.53;32.49;97643.48;105984;1282;22567;-86
2022/06/22 12:22:45;;;;;;;3.80;2.10;;;;;;;24.30;32.56;97643.19;106417;1283;24204;-88
2022/06/22 12:25:28;;;;;;;5.80;2.10;;;;;;;24.20;32.47;97641.94;105408;1282;23668;-88
2022/06/22 12:28:15;;;;;;;5.80;1.60;;;;;;;24.00;32.97;97652.90;105320;1282;22681;-87
2022/06/22 12:30:49;;;;;;;3.50;2.00;;;;;;;23.87;33.62;97641.26;105383;1282;25478;-87
2022/06/22 12:33:21;;;;;;;;;;;;;;;23.66;34.05;97639.27;105308;1282;24302;-88
2022/06/22 12:36:09;;;;;;;8.20;2.90;;;;;;;23.24;34.31;97639.96;105381;1282;24198;-87
2022/06/22 12:38:55;;;;;;;5.10;2.00;;;;;;;22.97;35.10;97636.50;105063;1285;25475;-86
2022/06/22 12:42:14;;;;;;;5.60;1.80;;;;;;;22.78;35.38;97624.16;105073;1285;22872;-87
2022/06/22 12:45:07;;;;;;;7.40;2.20;;;;;;;23.06;35.32;97626.26;105134;1285;24051;-88
2022/06/22 12:48:21;;;;;;;4.10;1.90;;;;;;;23.16;35.33;97621.64;104873;1286;25373;-88
2022/06/22 12:51:11;;;;;;;5.40;2.00;;;;;;;22.92;35.35;97622.50;105175;1285;22628;-88
2022/06/22 12:54:00;;;;;;;5.80;1.90;;;;;;;22.95;34.84;97611.20;105201;1285;22580;-88
2022/06/22 12:56:42;;;;;;;4.00;2.10;;;;;;;23.30;34.59;97608.40;105132;1285;22907;-88
2022/06/22 12:59:23;;;;;;;3.40;1.80;;;;;;;23.73;33.78;97617.49;105246;1285;22638;-87
2022/06/22 13:01:51;;;;;;;5.50;1.80;;;;;;;23.71;34.01;97618.13;105189;1285;25482;-88
2022/06/22 13:04:31;;;;;;;3.00;1.70;;;;;;;24.09;34.49;97607.82;105183;1285;22883;-88
2022/06/22 13:07:07;;;;;;;5.20;1.60;;;;;;;24.61;33.68;97607.10;105342;1285;23547;-87
2022/06/22 13:09:35;;;;;;;4.10;1.60;;;;;;;24.71;32.21;97603.30;105306;1282;22665;-88
2022/06/22 13:12:22;;;;;;;3.10;1.80;;;;;;;24.44;33.15;97595.11;105446;1282;24172;-89
2022/06/22 13:15:01;;;;;;;2.90;1.70;;;;;;;24.28;33.54;97604.80;105467;1282;22617;-88
2022/06/22 13:17:47;;;;;;;5.40;2.10;;;;;;;23.91;33.72;97605.17;105355;1282;22632;-89
2022/06/22 13:20:33;;;;;;;5.50;2.30;;;;;;;23.65;34.43;97601.93;105472;1282;22515;-88
2022/06/22 13:23:27;;;;;;;3.30;1.90;;;;;;;23.82;34.86;97596.67;105479;1282;23213;-86
2022/06/22 13:25:56;;;;;;;5.80;2.00;;;;;;;24.44;34.63;97599.98;105441;1283;22574;-89
2022/06/22 13:28:52;;;;;;;5.30;2.20;;;;;;;25.03;34.19;97594.56;105308;1282;22538;-88
2022/06/22 13:31:25;;;;;;;6.10;2.30;;;;;;;25.63;33.06;97595.93;106673;1282;24251;-88
2022/06/22 13:33:53;;;;;;;;;;;;;;;25.46;32.56;97598.49;107406;1280;23082;-87
2022/06/22 13:36:30;;;;;;;5.90;1.90;;;;;;;24.94;32.96;97603.11;105395;1282;22744;-88
2022/06/22 13:39:37;;;;;;;7.90;2.30;;;;;;;24.69;33.07;97600.69;105424;1282;25426;-87
2022/06/22 13:42:33;;;;;;;4.70;1.70;;;;;;;24.19;33.00;97598.85;105404;1282;22547;-85
2022/06/22 13:45:16;;;;;;;5.80;1.70;;;;;;;23.70;33.83;97606.02;105306;1282;25534;-87
2022/06/22 13:47:52;;;;;;;4.80;1.50;;;;;;;23.66;34.42;97613.64;105443;1282;22571;-87
2022/06/22 13:50:32;;;;;;;2.40;1.40;;;;;;;23.66;34.12;97617.97;105384;1282;24247;-88
2022/06/22 13:53:20;;;;;;;5.10;1.80;;;;;;;23.49;34.29;97618.56;105230;1282;209866;-88